sensor_id;sensor_type;location;lat;lon;timestamp;P1;P2;P0
68713;PMS7003;55690;51.566;19.198;2023-08-20T00:02:51;24;23;16
68713;PMS7003;55690;51.566;19.198;2023-08-20T00:07:04;22;18;13
68713;PMS7003;55690;51.566;19.198;2023-08-20T00:11:07;26;22;16
68713;PMS7003;55690;51.566;19.198;2023-08-20T00:15:10;21;20;16
68713;PMS7003;55690;51.566;19.198;2023-08-20T00:19:16;21;21;14
68713;PMS7003;55690;51.566;19.198;2023-08-20T00:23:22;28;26;21
68713;PMS7003;55690;51.566;19.198;2023-08-20T00:27:28;29;23;18
68713;PMS7003;55690;51.566;19.198;2023-08-20T00:31:34;24;23;19
68713;PMS7003;55690;51.566;19.198;2023-08-20T00:35:40;24;20;15
68713;PMS7003;55690;51.566;19.198;2023-08-20T00:39:46;27;25;17
68713;PMS7003;55690;51.566;19.198;2023-08-20T00:43:52;28;27;20
68713;PMS7003;55690;51.566;19.198;2023-08-20T00:47:59;27;24;18
68713;PMS7003;55690;51.566;19.198;2023-08-20T00:52:05;26;22;18
68713;PMS7003;55690;51.566;19.198;2023-08-20T00:56:12;27;25;20
68713;PMS7003;55690;51.566;19.198;2023-08-20T01:00:17;26;25;18
68713;PMS7003;55690;51.566;19.198;2023-08-20T01:04:23;26;25;19
68713;PMS7003;55690;51.566;19.198;2023-08-20T01:08:32;26;20;15
68713;PMS7003;55690;51.566;19.198;2023-08-20T01:12:41;31;28;20
68713;PMS7003;55690;51.566;19.198;2023-08-20T01:16:45;26;24;17
68713;PMS7003;55690;51.566;19.198;2023-08-20T01:20:54;35;24;18
68713;PMS7003;55690;51.566;19.198;2023-08-20T01:29:16;20;18;15
68713;PMS7003;55690;51.566;19.198;2023-08-20T01:33:18;21;20;14
68713;PMS7003;55690;51.566;19.198;2023-08-20T01:37:21;26;21;16
68713;PMS7003;55690;51.566;19.198;2023-08-20T01:41:23;16;15;11
68713;PMS7003;55690;51.566;19.198;2023-08-20T01:45:25;28;21;17
68713;PMS7003;55690;51.566;19.198;2023-08-20T01:49:31;19;18;14
68713;PMS7003;55690;51.566;19.198;2023-08-20T01:53:37;24;24;18
68713;PMS7003;55690;51.566;19.198;2023-08-20T01:57:43;22;19;14
68713;PMS7003;55690;51.566;19.198;2023-08-20T02:01:49;28;21;17
68713;PMS7003;55690;51.566;19.198;2023-08-20T02:05:56;20;19;15
68713;PMS7003;55690;51.566;19.198;2023-08-20T02:10:02;25;21;17
68713;PMS7003;55690;51.566;19.198;2023-08-20T02:14:08;22;19;12
68713;PMS7003;55690;51.566;19.198;2023-08-20T02:18:14;22;17;13
68713;PMS7003;55690;51.566;19.198;2023-08-20T02:22:20;20;20;14
68713;PMS7003;55690;51.566;19.198;2023-08-20T02:26:26;19;12;10
68713;PMS7003;55690;51.566;19.198;2023-08-20T02:30:37;38;24;13
68713;PMS7003;55690;51.566;19.198;2023-08-20T02:34:43;22;19;14
68713;PMS7003;55690;51.566;19.198;2023-08-20T02:38:45;21;21;17
68713;PMS7003;55690;51.566;19.198;2023-08-20T02:42:51;28;21;18
68713;PMS7003;55690;51.566;19.198;2023-08-20T02:46:57;24;22;18
68713;PMS7003;55690;51.566;19.198;2023-08-20T02:51:03;22;22;17
68713;PMS7003;55690;51.566;19.198;2023-08-20T02:55:10;27;24;14
68713;PMS7003;55690;51.566;19.198;2023-08-20T02:59:16;25;21;17
68713;PMS7003;55690;51.566;19.198;2023-08-20T03:03:22;24;20;16
68713;PMS7003;55690;51.566;19.198;2023-08-20T03:07:28;22;22;17
68713;PMS7003;55690;51.566;19.198;2023-08-20T03:11:34;19;18;15
68713;PMS7003;55690;51.566;19.198;2023-08-20T03:15:40;19;19;16
68713;PMS7003;55690;51.566;19.198;2023-08-20T03:23:58;17;16;11
68713;PMS7003;55690;51.566;19.198;2023-08-20T03:27:59;20;18;14
68713;PMS7003;55690;51.566;19.198;2023-08-20T03:32:05;23;18;13
68713;PMS7003;55690;51.566;19.198;2023-08-20T03:36:11;33;20;15
68713;PMS7003;55690;51.566;19.198;2023-08-20T03:40:17;19;17;14
68713;PMS7003;55690;51.566;19.198;2023-08-20T03:44:24;28;23;15
68713;PMS7003;55690;51.566;19.198;2023-08-20T03:48:30;22;19;14
68713;PMS7003;55690;51.566;19.198;2023-08-20T03:52:36;20;18;15
68713;PMS7003;55690;51.566;19.198;2023-08-20T03:56:43;13;13;10
68713;PMS7003;55690;51.566;19.198;2023-08-20T04:00:48;19;19;17
68713;PMS7003;55690;51.566;19.198;2023-08-20T04:04:57;24;21;14
68713;PMS7003;55690;51.566;19.198;2023-08-20T04:09:00;19;18;15
68713;PMS7003;55690;51.566;19.198;2023-08-20T04:13:07;22;20;13
68713;PMS7003;55690;51.566;19.198;2023-08-20T04:17:13;26;19;13
68713;PMS7003;55690;51.566;19.198;2023-08-20T04:21:19;35;19;15
68713;PMS7003;55690;51.566;19.198;2023-08-20T04:25:26;21;18;13
68713;PMS7003;55690;51.566;19.198;2023-08-20T04:29:32;20;20;16
68713;PMS7003;55690;51.566;19.198;2023-08-20T04:33:37;20;18;14
68713;PMS7003;55690;51.566;19.198;2023-08-20T04:37:44;21;19;15
68713;PMS7003;55690;51.566;19.198;2023-08-20T04:41:50;19;18;14
68713;PMS7003;55690;51.566;19.198;2023-08-20T04:45:56;34;24;15
68713;PMS7003;55690;51.566;19.198;2023-08-20T04:50:03;19;17;13
68713;PMS7003;55690;51.566;19.198;2023-08-20T04:54:08;21;19;12
68713;PMS7003;55690;51.566;19.198;2023-08-20T04:58:15;20;17;13
68713;PMS7003;55690;51.566;19.198;2023-08-20T05:02:21;24;18;14
68713;PMS7003;55690;51.566;19.198;2023-08-20T05:06:27;20;20;15
68713;PMS7003;55690;51.566;19.198;2023-08-20T05:10:35;24;22;15
68713;PMS7003;55690;51.566;19.198;2023-08-20T05:14:39;23;22;17
68713;PMS7003;55690;51.566;19.198;2023-08-20T05:18:45;23;22;18
68713;PMS7003;55690;51.566;19.198;2023-08-20T05:22:51;21;21;15
68713;PMS7003;55690;51.566;19.198;2023-08-20T05:31:09;25;25;18
68713;PMS7003;55690;51.566;19.198;2023-08-20T05:35:11;29;23;19
68713;PMS7003;55690;51.566;19.198;2023-08-20T05:39:16;25;21;16
68713;PMS7003;55690;51.566;19.198;2023-08-20T05:43:22;23;23;15
68713;PMS7003;55690;51.566;19.198;2023-08-20T05:47:28;33;28;18
68713;PMS7003;55690;51.566;19.198;2023-08-20T05:51:35;23;19;15
68713;PMS7003;55690;51.566;19.198;2023-08-20T05:55:41;39;25;20
68713;PMS7003;55690;51.566;19.198;2023-08-20T05:59:47;37;31;19
68713;PMS7003;55690;51.566;19.198;2023-08-20T06:03:53;39;28;20
68713;PMS7003;55690;51.566;19.198;2023-08-20T06:07:59;31;28;20
68713;PMS7003;55690;51.566;19.198;2023-08-20T06:12:06;35;31;22
68713;PMS7003;55690;51.566;19.198;2023-08-20T06:16:12;41;29;19
68713;PMS7003;55690;51.566;19.198;2023-08-20T06:20:18;38;26;16
68713;PMS7003;55690;51.566;19.198;2023-08-20T06:24:24;35;30;23
68713;PMS7003;55690;51.566;19.198;2023-08-20T06:28:31;28;28;21
68713;PMS7003;55690;51.566;19.198;2023-08-20T06:32:37;33;27;21
68713;PMS7003;55690;51.566;19.198;2023-08-20T06:36:43;32;30;20
68713;PMS7003;55690;51.566;19.198;2023-08-20T06:40:50;40;28;21
68713;PMS7003;55690;51.566;19.198;2023-08-20T06:44:55;39;29;21
68713;PMS7003;55690;51.566;19.198;2023-08-20T06:49:02;26;23;18
68713;PMS7003;55690;51.566;19.198;2023-08-20T06:53:08;26;25;20
68713;PMS7003;55690;51.566;19.198;2023-08-20T06:57:14;29;26;20
68713;PMS7003;55690;51.566;19.198;2023-08-20T07:01:20;31;27;20
68713;PMS7003;55690;51.566;19.198;2023-08-20T07:05:26;34;23;16
68713;PMS7003;55690;51.566;19.198;2023-08-20T07:09:32;23;20;16
68713;PMS7003;55690;51.566;19.198;2023-08-20T07:13:39;30;25;19
68713;PMS7003;55690;51.566;19.198;2023-08-20T07:17:45;24;24;18
68713;PMS7003;55690;51.566;19.198;2023-08-20T07:21:51;23;21;16
68713;PMS7003;55690;51.566;19.198;2023-08-20T07:30:06;27;25;19
68713;PMS7003;55690;51.566;19.198;2023-08-20T07:34:09;20;20;17
68713;PMS7003;55690;51.566;19.198;2023-08-20T07:38:16;23;23;16
68713;PMS7003;55690;51.566;19.198;2023-08-20T07:42:22;24;21;15
68713;PMS7003;55690;51.566;19.198;2023-08-20T07:46:28;19;19;14
68713;PMS7003;55690;51.566;19.198;2023-08-20T07:50:34;24;24;18
68713;PMS7003;55690;51.566;19.198;2023-08-20T07:54:40;21;18;16
68713;PMS7003;55690;51.566;19.198;2023-08-20T07:58:46;24;21;15
68713;PMS7003;55690;51.566;19.198;2023-08-20T08:02:53;19;19;16
68713;PMS7003;55690;51.566;19.198;2023-08-20T08:06:59;23;20;17
68713;PMS7003;55690;51.566;19.198;2023-08-20T08:11:05;24;23;19
68713;PMS7003;55690;51.566;19.198;2023-08-20T08:15:11;25;25;20
68713;PMS7003;55690;51.566;19.198;2023-08-20T08:19:17;21;21;15
68713;PMS7003;55690;51.566;19.198;2023-08-20T08:23:23;24;19;15
68713;PMS7003;55690;51.566;19.198;2023-08-20T08:27:29;25;25;20
68713;PMS7003;55690;51.566;19.198;2023-08-20T08:31:36;19;19;15
68713;PMS7003;55690;51.566;19.198;2023-08-20T08:35:42;24;20;18
68713;PMS7003;55690;51.566;19.198;2023-08-20T08:39:48;21;21;14
68713;PMS7003;55690;51.566;19.198;2023-08-20T08:43:55;19;19;16
68713;PMS7003;55690;51.566;19.198;2023-08-20T08:48:00;19;18;13
68713;PMS7003;55690;51.566;19.198;2023-08-20T08:52:06;22;21;16
68713;PMS7003;55690;51.566;19.198;2023-08-20T08:56:13;12;11;8
68713;PMS7003;55690;51.566;19.198;2023-08-20T09:00:19;24;24;18
68713;PMS7003;55690;51.566;19.198;2023-08-20T09:04:25;16;16;13
68713;PMS7003;55690;51.566;19.198;2023-08-20T09:08:31;29;24;19
68713;PMS7003;55690;51.566;19.198;2023-08-20T09:12:37;21;19;14
68713;PMS7003;55690;51.566;19.198;2023-08-20T09:16:43;21;21;14
68713;PMS7003;55690;51.566;19.198;2023-08-20T09:20:49;31;22;16
68713;PMS7003;55690;51.566;19.198;2023-08-20T09:24:56;16;16;14
68713;PMS7003;55690;51.566;19.198;2023-08-20T09:29:02;15;15;14
68713;PMS7003;55690;51.566;19.198;2023-08-20T09:33:10;17;17;13
68713;PMS7003;55690;51.566;19.198;2023-08-20T09:37:15;25;17;13
68713;PMS7003;55690;51.566;19.198;2023-08-20T09:41:20;19;17;15
68713;PMS7003;55690;51.566;19.198;2023-08-20T09:45:28;18;16;12
68713;PMS7003;55690;51.566;19.198;2023-08-20T09:49:35;14;14;12
68713;PMS7003;55690;51.566;19.198;2023-08-20T09:53:44;16;15;13
68713;PMS7003;55690;51.566;19.198;2023-08-20T09:57:50;11;11;10
68713;PMS7003;55690;51.566;19.198;2023-08-20T10:01:53;19;19;15
68713;PMS7003;55690;51.566;19.198;2023-08-20T10:05:58;17;17;15
68713;PMS7003;55690;51.566;19.198;2023-08-20T10:10:04;20;20;16
68713;PMS7003;55690;51.566;19.198;2023-08-20T10:14:09;26;19;15
68713;PMS7003;55690;51.566;19.198;2023-08-20T10:18:18;14;14;13
68713;PMS7003;55690;51.566;19.198;2023-08-20T10:22:25;15;14;11
68713;PMS7003;55690;51.566;19.198;2023-08-20T10:26:35;18;18;16
68713;PMS7003;55690;51.566;19.198;2023-08-20T10:30:37;13;13;12
68713;PMS7003;55690;51.566;19.198;2023-08-20T10:34:42;15;15;13
68713;PMS7003;55690;51.566;19.198;2023-08-20T10:38:49;13;13;11
68713;PMS7003;55690;51.566;19.198;2023-08-20T10:42:55;15;13;8
68713;PMS7003;55690;51.566;19.198;2023-08-20T10:47:03;13;13;11
68713;PMS7003;55690;51.566;19.198;2023-08-20T10:55:22;14;14;13
68713;PMS7003;55690;51.566;19.198;2023-08-20T10:59:28;18;16;13
68713;PMS7003;55690;51.566;19.198;2023-08-20T11:03:31;21;21;16
68713;PMS7003;55690;51.566;19.198;2023-08-20T11:07:34;16;13;12
68713;PMS7003;55690;51.566;19.198;2023-08-20T11:11:39;21;19;16
68713;PMS7003;55690;51.566;19.198;2023-08-20T11:15:42;16;16;14
68713;PMS7003;55690;51.566;19.198;2023-08-20T11:19:48;14;14;11
68713;PMS7003;55690;51.566;19.198;2023-08-20T11:23:54;20;13;11
68713;PMS7003;55690;51.566;19.198;2023-08-20T11:28:00;17;17;13
68713;PMS7003;55690;51.566;19.198;2023-08-20T11:32:06;16;16;13
68713;PMS7003;55690;51.566;19.198;2023-08-20T11:36:14;13;13;12
68713;PMS7003;55690;51.566;19.198;2023-08-20T11:40:22;13;13;11
68713;PMS7003;55690;51.566;19.198;2023-08-20T11:44:25;17;17;14
68713;PMS7003;55690;51.566;19.198;2023-08-20T11:48:31;13;13;10
68713;PMS7003;55690;51.566;19.198;2023-08-20T11:52:38;17;14;11
68713;PMS7003;55690;51.566;19.198;2023-08-20T11:56:47;18;17;14
68713;PMS7003;55690;51.566;19.198;2023-08-20T12:00:50;17;17;13
68713;PMS7003;55690;51.566;19.198;2023-08-20T12:04:56;16;16;12
68713;PMS7003;55690;51.566;19.198;2023-08-20T12:09:02;13;13;11
68713;PMS7003;55690;51.566;19.198;2023-08-20T12:13:14;12;12;11
68713;PMS7003;55690;51.566;19.198;2023-08-20T12:17:18;16;14;10
68713;PMS7003;55690;51.566;19.198;2023-08-20T12:21:20;18;17;14
68713;PMS7003;55690;51.566;19.198;2023-08-20T12:25:27;10;10;9
68713;PMS7003;55690;51.566;19.198;2023-08-20T12:29:32;11;11;10
68713;PMS7003;55690;51.566;19.198;2023-08-20T12:33:38;14;10;8
68713;PMS7003;55690;51.566;19.198;2023-08-20T12:37:45;12;12;11
68713;PMS7003;55690;51.566;19.198;2023-08-20T12:41:51;13;13;11
68713;PMS7003;55690;51.566;19.198;2023-08-20T12:45:57;12;12;12
68713;PMS7003;55690;51.566;19.198;2023-08-20T12:50:03;13;13;11
68713;PMS7003;55690;51.566;19.198;2023-08-20T12:54:09;12;12;11
68713;PMS7003;55690;51.566;19.198;2023-08-20T12:58:16;17;16;13
68713;PMS7003;55690;51.566;19.198;2023-08-20T13:02:22;17;12;9
68713;PMS7003;55690;51.566;19.198;2023-08-20T13:06:28;16;16;14
68713;PMS7003;55690;51.566;19.198;2023-08-20T13:10:34;14;14;12
68713;PMS7003;55690;51.566;19.198;2023-08-20T13:14:40;15;15;11
68713;PMS7003;55690;51.566;19.198;2023-08-20T13:18:46;11;11;11
68713;PMS7003;55690;51.566;19.198;2023-08-20T13:22:52;12;12;10
68713;PMS7003;55690;51.566;19.198;2023-08-20T13:26:58;17;14;12
68713;PMS7003;55690;51.566;19.198;2023-08-20T13:31:05;11;11;10
68713;PMS7003;55690;51.566;19.198;2023-08-20T13:35:11;14;14;12
68713;PMS7003;55690;51.566;19.198;2023-08-20T13:39:17;12;10;9
68713;PMS7003;55690;51.566;19.198;2023-08-20T13:43:23;14;14;11
68713;PMS7003;55690;51.566;19.198;2023-08-20T13:47:29;9;9;7
68713;PMS7003;55690;51.566;19.198;2023-08-20T13:51:35;12;11;8
68713;PMS7003;55690;51.566;19.198;2023-08-20T13:55:41;16;15;11
68713;PMS7003;55690;51.566;19.198;2023-08-20T13:59:48;12;11;9
68713;PMS7003;55690;51.566;19.198;2023-08-20T14:03:54;10;10;10
68713;PMS7003;55690;51.566;19.198;2023-08-20T14:08:00;12;12;10
68713;PMS7003;55690;51.566;19.198;2023-08-20T14:12:06;9;9;8
68713;PMS7003;55690;51.566;19.198;2023-08-20T14:16:12;11;11;9
68713;PMS7003;55690;51.566;19.198;2023-08-20T14:20:18;12;12;10
68713;PMS7003;55690;51.566;19.198;2023-08-20T14:24:25;12;12;11
68713;PMS7003;55690;51.566;19.198;2023-08-20T14:28:31;11;11;10
68713;PMS7003;55690;51.566;19.198;2023-08-20T14:32:37;11;10;8
68713;PMS7003;55690;51.566;19.198;2023-08-20T14:36:43;13;12;9
68713;PMS7003;55690;51.566;19.198;2023-08-20T14:40:49;13;11;10
68713;PMS7003;55690;51.566;19.198;2023-08-20T14:44:55;14;10;8
68713;PMS7003;55690;51.566;19.198;2023-08-20T14:49:01;11;11;7
68713;PMS7003;55690;51.566;19.198;2023-08-20T14:53:08;17;9;8
68713;PMS7003;55690;51.566;19.198;2023-08-20T14:57:14;9;9;8
68713;PMS7003;55690;51.566;19.198;2023-08-20T15:01:21;12;12;11
68713;PMS7003;55690;51.566;19.198;2023-08-20T15:05:26;12;12;9
68713;PMS7003;55690;51.566;19.198;2023-08-20T15:09:32;10;10;9
68713;PMS7003;55690;51.566;19.198;2023-08-20T15:13:41;10;10;8
68713;PMS7003;55690;51.566;19.198;2023-08-20T15:17:45;8;8;5
68713;PMS7003;55690;51.566;19.198;2023-08-20T15:21:51;13;13;11
68713;PMS7003;55690;51.566;19.198;2023-08-20T15:25:57;15;15;13
68713;PMS7003;55690;51.566;19.198;2023-08-20T15:30:03;7;7;6
68713;PMS7003;55690;51.566;19.198;2023-08-20T15:34:09;8;8;7
68713;PMS7003;55690;51.566;19.198;2023-08-20T15:38:15;11;11;8
68713;PMS7003;55690;51.566;19.198;2023-08-20T15:42:22;12;12;10
68713;PMS7003;55690;51.566;19.198;2023-08-20T15:46:28;16;16;12
68713;PMS7003;55690;51.566;19.198;2023-08-20T15:50:34;16;11;7
68713;PMS7003;55690;51.566;19.198;2023-08-20T15:54:40;11;11;8
68713;PMS7003;55690;51.566;19.198;2023-08-20T15:58:46;16;13;11
68713;PMS7003;55690;51.566;19.198;2023-08-20T16:02:53;8;8;7
68713;PMS7003;55690;51.566;19.198;2023-08-20T16:06:58;11;11;10
68713;PMS7003;55690;51.566;19.198;2023-08-20T16:11:05;8;8;7
68713;PMS7003;55690;51.566;19.198;2023-08-20T16:15:11;21;9;8
68713;PMS7003;55690;51.566;19.198;2023-08-20T16:19:17;15;15;12
68713;PMS7003;55690;51.566;19.198;2023-08-20T16:23:23;8;6;6
68713;PMS7003;55690;51.566;19.198;2023-08-20T16:27:29;14;14;12
68713;PMS7003;55690;51.566;19.198;2023-08-20T16:31:35;15;15;12
68713;PMS7003;55690;51.566;19.198;2023-08-20T16:35:44;10;10;8
68713;PMS7003;55690;51.566;19.198;2023-08-20T16:39:48;11;11;8
68713;PMS7003;55690;51.566;19.198;2023-08-20T16:43:54;8;7;6
68713;PMS7003;55690;51.566;19.198;2023-08-20T16:48:00;11;11;8
68713;PMS7003;55690;51.566;19.198;2023-08-20T16:52:06;14;14;11
68713;PMS7003;55690;51.566;19.198;2023-08-20T16:56:12;13;10;9
68713;PMS7003;55690;51.566;19.198;2023-08-20T17:00:18;13;11;7
68713;PMS7003;55690;51.566;19.198;2023-08-20T17:04:25;16;9;8
68713;PMS7003;55690;51.566;19.198;2023-08-20T17:08:31;13;9;7
68713;PMS7003;55690;51.566;19.198;2023-08-20T17:12:37;17;17;13
68713;PMS7003;55690;51.566;19.198;2023-08-20T17:16:43;16;15;10
68713;PMS7003;55690;51.566;19.198;2023-08-20T17:20:49;17;16;13
68713;PMS7003;55690;51.566;19.198;2023-08-20T17:24:55;14;14;12
68713;PMS7003;55690;51.566;19.198;2023-08-20T17:29:01;13;13;8
68713;PMS7003;55690;51.566;19.198;2023-08-20T17:33:08;14;14;13
68713;PMS7003;55690;51.566;19.198;2023-08-20T17:37:15;12;12;11
68713;PMS7003;55690;51.566;19.198;2023-08-20T17:41:20;14;11;10
68713;PMS7003;55690;51.566;19.198;2023-08-20T17:45:26;15;13;11
68713;PMS7003;55690;51.566;19.198;2023-08-20T17:49:32;14;9;7
68713;PMS7003;55690;51.566;19.198;2023-08-20T17:53:38;13;13;12
68713;PMS7003;55690;51.566;19.198;2023-08-20T17:57:45;35;19;16
68713;PMS7003;55690;51.566;19.198;2023-08-20T18:01:51;16;16;12
68713;PMS7003;55690;51.566;19.198;2023-08-20T18:05:57;12;12;10
68713;PMS7003;55690;51.566;19.198;2023-08-20T18:10:03;12;12;11
68713;PMS7003;55690;51.566;19.198;2023-08-20T18:14:09;14;14;12
68713;PMS7003;55690;51.566;19.198;2023-08-20T18:18:15;14;12;9
68713;PMS7003;55690;51.566;19.198;2023-08-20T18:22:22;14;13;10
68713;PMS7003;55690;51.566;19.198;2023-08-20T18:26:28;16;16;13
68713;PMS7003;55690;51.566;19.198;2023-08-20T18:30:34;18;18;12
68713;PMS7003;55690;51.566;19.198;2023-08-20T18:34:40;18;11;10
68713;PMS7003;55690;51.566;19.198;2023-08-20T18:38:46;23;11;10
68713;PMS7003;55690;51.566;19.198;2023-08-20T18:42:52;19;14;11
68713;PMS7003;55690;51.566;19.198;2023-08-20T18:46:58;13;12;10
68713;PMS7003;55690;51.566;19.198;2023-08-20T18:51:05;18;18;15
68713;PMS7003;55690;51.566;19.198;2023-08-20T18:55:11;17;15;12
68713;PMS7003;55690;51.566;19.198;2023-08-20T18:59:17;12;12;10
68713;PMS7003;55690;51.566;19.198;2023-08-20T19:03:23;7;7;7
68713;PMS7003;55690;51.566;19.198;2023-08-20T19:07:29;12;11;9
68713;PMS7003;55690;51.566;19.198;2023-08-20T19:11:35;12;12;11
68713;PMS7003;55690;51.566;19.198;2023-08-20T19:15:45;24;19;16
68713;PMS7003;55690;51.566;19.198;2023-08-20T19:19:50;25;18;15
68713;PMS7003;55690;51.566;19.198;2023-08-20T19:23:54;16;15;14
68713;PMS7003;55690;51.566;19.198;2023-08-20T19:28:00;17;12;11
68713;PMS7003;55690;51.566;19.198;2023-08-20T19:32:06;13;13;10
68713;PMS7003;55690;51.566;19.198;2023-08-20T19:36:12;18;13;10
68713;PMS7003;55690;51.566;19.198;2023-08-20T19:40:18;11;11;9
68713;PMS7003;55690;51.566;19.198;2023-08-20T19:44:25;11;11;10
68713;PMS7003;55690;51.566;19.198;2023-08-20T19:48:31;14;13;12
68713;PMS7003;55690;51.566;19.198;2023-08-20T19:52:37;8;8;7
68713;PMS7003;55690;51.566;19.198;2023-08-20T19:56:43;14;14;10
68713;PMS7003;55690;51.566;19.198;2023-08-20T20:00:49;17;13;8
68713;PMS7003;55690;51.566;19.198;2023-08-20T20:04:55;11;11;7
68713;PMS7003;55690;51.566;19.198;2023-08-20T20:09:02;11;11;9
68713;PMS7003;55690;51.566;19.198;2023-08-20T20:13:08;9;9;7
68713;PMS7003;55690;51.566;19.198;2023-08-20T20:17:14;12;7;6
68713;PMS7003;55690;51.566;19.198;2023-08-20T20:21:21;9;9;6
68713;PMS7003;55690;51.566;19.198;2023-08-20T20:25:26;13;10;7
68713;PMS7003;55690;51.566;19.198;2023-08-20T20:29:32;11;11;10
68713;PMS7003;55690;51.566;19.198;2023-08-20T20:33:39;12;12;10
68713;PMS7003;55690;51.566;19.198;2023-08-20T20:37:45;11;11;10
68713;PMS7003;55690;51.566;19.198;2023-08-20T20:41:51;9;7;6
68713;PMS7003;55690;51.566;19.198;2023-08-20T20:45:59;13;10;8
68713;PMS7003;55690;51.566;19.198;2023-08-20T20:50:03;17;15;12
68713;PMS7003;55690;51.566;19.198;2023-08-20T20:54:14;9;9;8
68713;PMS7003;55690;51.566;19.198;2023-08-20T20:58:20;12;12;9
68713;PMS7003;55690;51.566;19.198;2023-08-20T21:02:26;12;12;10
68713;PMS7003;55690;51.566;19.198;2023-08-20T21:06:32;10;10;9
68713;PMS7003;55690;51.566;19.198;2023-08-20T21:10:39;11;11;10
68713;PMS7003;55690;51.566;19.198;2023-08-20T21:14:45;12;12;8
68713;PMS7003;55690;51.566;19.198;2023-08-20T21:18:51;14;13;12
68713;PMS7003;55690;51.566;19.198;2023-08-20T21:22:57;10;10;9
68713;PMS7003;55690;51.566;19.198;2023-08-20T21:27:03;13;13;11
68713;PMS7003;55690;51.566;19.198;2023-08-20T21:31:09;13;10;8
68713;PMS7003;55690;51.566;19.198;2023-08-20T21:35:16;13;11;9
68713;PMS7003;55690;51.566;19.198;2023-08-20T21:39:22;11;11;7
68713;PMS7003;55690;51.566;19.198;2023-08-20T21:43:28;16;15;11
68713;PMS7003;55690;51.566;19.198;2023-08-20T21:47:37;15;15;9
68713;PMS7003;55690;51.566;19.198;2023-08-20T21:51:41;19;11;10
68713;PMS7003;55690;51.566;19.198;2023-08-20T21:59:55;15;12;10
68713;PMS7003;55690;51.566;19.198;2023-08-20T22:03:59;16;15;12
68713;PMS7003;55690;51.566;19.198;2023-08-20T22:08:05;14;8;6
68713;PMS7003;55690;51.566;19.198;2023-08-20T22:12:11;15;12;10
68713;PMS7003;55690;51.566;19.198;2023-08-20T22:16:17;14;14;13
68713;PMS7003;55690;51.566;19.198;2023-08-20T22:20:23;20;16;13
68713;PMS7003;55690;51.566;19.198;2023-08-20T22:24:29;11;11;8
68713;PMS7003;55690;51.566;19.198;2023-08-20T22:28:36;13;10;8
68713;PMS7003;55690;51.566;19.198;2023-08-20T22:32:42;14;10;9
68713;PMS7003;55690;51.566;19.198;2023-08-20T22:36:48;13;13;10
68713;PMS7003;55690;51.566;19.198;2023-08-20T22:40:54;10;10;9
68713;PMS7003;55690;51.566;19.198;2023-08-20T22:45:00;7;7;3
68713;PMS7003;55690;51.566;19.198;2023-08-20T22:49:06;11;11;8
68713;PMS7003;55690;51.566;19.198;2023-08-20T22:53:13;12;12;9
68713;PMS7003;55690;51.566;19.198;2023-08-20T22:57:19;16;15;10
68713;PMS7003;55690;51.566;19.198;2023-08-20T23:01:25;14;14;13
68713;PMS7003;55690;51.566;19.198;2023-08-20T23:05:31;23;21;12
68713;PMS7003;55690;51.566;19.198;2023-08-20T23:09:37;15;15;10
68713;PMS7003;55690;51.566;19.198;2023-08-20T23:13:43;20;12;10
68713;PMS7003;55690;51.566;19.198;2023-08-20T23:17:50;21;14;11
68713;PMS7003;55690;51.566;19.198;2023-08-20T23:21:56;14;12;10
68713;PMS7003;55690;51.566;19.198;2023-08-20T23:26:02;9;9;6
68713;PMS7003;55690;51.566;19.198;2023-08-20T23:30:08;13;13;8
68713;PMS7003;55690;51.566;19.198;2023-08-20T23:34:14;13;13;9
68713;PMS7003;55690;51.566;19.198;2023-08-20T23:38:20;13;12;11
68713;PMS7003;55690;51.566;19.198;2023-08-20T23:42:26;11;11;9
68713;PMS7003;55690;51.566;19.198;2023-08-20T23:46:33;15;15;11
68713;PMS7003;55690;51.566;19.198;2023-08-20T23:50:39;13;11;9
68713;PMS7003;55690;51.566;19.198;2023-08-20T23:54:45;13;11;9
68713;PMS7003;55690;51.566;19.198;2023-08-20T23:58:51;17;17;13
